sensor_id;sensor_type;location;lat;lon;timestamp;pressure;altitude;pressure_sealevel;temperature
31528;BMP280;10206;48.012;10.030;2023-02-28T00:00:07;95042.75;;;0.38
31528;BMP280;10206;48.012;10.030;2023-02-28T00:02:36;95051.50;;;0.17
31528;BMP280;10206;48.012;10.030;2023-02-28T00:05:03;95051.31;;;0.48
31528;BMP280;10206;48.012;10.030;2023-02-28T00:07:30;95043.03;;;0.51
31528;BMP280;10206;48.012;10.030;2023-02-28T00:09:57;95044.97;;;0.62
31528;BMP280;10206;48.012;10.030;2023-02-28T00:12:24;95040.78;;;0.33
31528;BMP280;10206;48.012;10.030;2023-02-28T00:14:50;95039.78;;;0.09
31528;BMP280;10206;48.012;10.030;2023-02-28T00:17:16;95049.09;;;0.30
31528;BMP280;10206;48.012;10.030;2023-02-28T00:19:50;95049.34;;;0.54
31528;BMP280;10206;48.012;10.030;2023-02-28T00:22:18;95052.03;;;0.65
31528;BMP280;10206;48.012;10.030;2023-02-28T00:24:45;95049.38;;;0.48
31528;BMP280;10206;48.012;10.030;2023-02-28T00:27:13;95035.91;;;0.10
31528;BMP280;10206;48.012;10.030;2023-02-28T00:29:39;95044.47;;;0.41
31528;BMP280;10206;48.012;10.030;2023-02-28T00:32:06;95052.03;;;0.48
31528;BMP280;10206;48.012;10.030;2023-02-28T00:34:32;95049.81;;;0.25
31528;BMP280;10206;48.012;10.030;2023-02-28T00:37:07;95044.22;;;0.62
31528;BMP280;10206;48.012;10.030;2023-02-28T00:39:35;95049.84;;;0.86
31528;BMP280;10206;48.012;10.030;2023-02-28T00:42:02;95045.41;;;0.33
31528;BMP280;10206;48.012;10.030;2023-02-28T00:44:29;95040.31;;;0.40
31528;BMP280;10206;48.012;10.030;2023-02-28T00:46:56;95046.66;;;0.87
31528;BMP280;10206;48.012;10.030;2023-02-28T00:49:22;95043.28;;;0.70
31528;BMP280;10206;48.012;10.030;2023-02-28T00:51:49;95044.25;;;0.73
31528;BMP280;10206;48.012;10.030;2023-02-28T00:54:15;95041.31;;;0.60
31528;BMP280;10206;48.012;10.030;2023-02-28T00:56:42;95036.66;;;0.38
31528;BMP280;10206;48.012;10.030;2023-02-28T00:59:08;95035.41;;;0.33
31528;BMP280;10206;48.012;10.030;2023-02-28T01:01:35;95032.25;;;0.24
31528;BMP280;10206;48.012;10.030;2023-02-28T01:04:01;95030.78;;;0.17
31528;BMP280;10206;48.012;10.030;2023-02-28T01:06:27;95022.78;;;0.28
31528;BMP280;10206;48.012;10.030;2023-02-28T01:08:53;95023.97;;;0.49
31528;BMP280;10206;48.012;10.030;2023-02-28T01:11:19;95019.84;;;0.48
31528;BMP280;10206;48.012;10.030;2023-02-28T01:13:46;95020.31;;;0.91
31528;BMP280;10206;48.012;10.030;2023-02-28T01:16:13;95017.41;;;0.84
31528;BMP280;10206;48.012;10.030;2023-02-28T01:18:39;95013.50;;;0.68
31528;BMP280;10206;48.012;10.030;2023-02-28T01:21:12;95014.47;;;0.26
31528;BMP280;10206;48.012;10.030;2023-02-28T01:23:39;95021.53;;;0.35
31528;BMP280;10206;48.012;10.030;2023-02-28T01:26:07;95016.66;;;0.44
31528;BMP280;10206;48.012;10.030;2023-02-28T01:28:34;95014.00;;;0.28
31528;BMP280;10206;48.012;10.030;2023-02-28T01:31:00;95011.81;;;0.48
31528;BMP280;10206;48.012;10.030;2023-02-28T01:33:26;95018.13;;;0.57
31528;BMP280;10206;48.012;10.030;2023-02-28T01:36:00;95006.69;;;0.28
31528;BMP280;10206;48.012;10.030;2023-02-28T01:38:27;95011.31;;;0.83
31528;BMP280;10206;48.012;10.030;2023-02-28T01:40:53;95008.13;;;0.74
31528;BMP280;10206;48.012;10.030;2023-02-28T01:43:25;95005.22;;;0.66
31528;BMP280;10206;48.012;10.030;2023-02-28T01:45:53;95007.88;;;0.72
31528;BMP280;10206;48.012;10.030;2023-02-28T01:48:25;95008.38;;;0.87
31528;BMP280;10206;48.012;10.030;2023-02-28T01:50:53;94991.28;;;0.40
31528;BMP280;10206;48.012;10.030;2023-02-28T01:53:24;95003.25;;;0.83
31528;BMP280;10206;48.012;10.030;2023-02-28T01:55:53;94992.50;;;0.55
31528;BMP280;10206;48.012;10.030;2023-02-28T01:58:20;95002.78;;;0.57
31528;BMP280;10206;48.012;10.030;2023-02-28T02:00:46;95002.50;;;0.72
31528;BMP280;10206;48.012;10.030;2023-02-28T02:03:16;94996.16;;;0.52
31528;BMP280;10206;48.012;10.030;2023-02-28T02:05:45;94994.47;;;0.72
31528;BMP280;10206;48.012;10.030;2023-02-28T02:08:22;95003.03;;;0.65
31528;BMP280;10206;48.012;10.030;2023-02-28T02:10:51;94999.09;;;0.43
31528;BMP280;10206;48.012;10.030;2023-02-28T02:25:28;94988.59;;;0.84
31528;BMP280;10206;48.012;10.030;2023-02-28T02:28:02;94996.66;;;0.90
31528;BMP280;10206;48.012;10.030;2023-02-28T02:36:30;94985.69;;;0.60
31528;BMP280;10206;48.012;10.030;2023-02-28T02:39:50;94995.22;;;0.67
31528;BMP280;10206;48.012;10.030;2023-02-28T02:45:14;94990.09;;;0.58
31528;BMP280;10206;48.012;10.030;2023-02-28T02:47:43;94992.03;;;0.74
31528;BMP280;10206;48.012;10.030;2023-02-28T02:50:15;94989.81;;;0.06
31528;BMP280;10206;48.012;10.030;2023-02-28T02:52:48;94991.31;;;0.29
31528;BMP280;10206;48.012;10.030;2023-02-28T02:55:18;94987.84;;;-0.11
31528;BMP280;10206;48.012;10.030;2023-02-28T02:57:49;94993.00;;;0.37
31528;BMP280;10206;48.012;10.030;2023-02-28T03:00:18;94999.59;;;0.59
31528;BMP280;10206;48.012;10.030;2023-02-28T03:02:47;94994.72;;;0.51
31528;BMP280;10206;48.012;10.030;2023-02-28T03:05:47;94997.16;;;0.83
31528;BMP280;10206;48.012;10.030;2023-02-28T03:08:14;94996.63;;;0.01
31528;BMP280;10206;48.012;10.030;2023-02-28T03:10:42;95000.78;;;0.13
31528;BMP280;10206;48.012;10.030;2023-02-28T03:13:22;94989.09;;;-0.01
31528;BMP280;10206;48.012;10.030;2023-02-28T03:18:56;94994.72;;;0.18
31528;BMP280;10206;48.012;10.030;2023-02-28T03:24:10;94997.91;;;0.28
31528;BMP280;10206;48.012;10.030;2023-02-28T03:26:44;94998.38;;;0.21
31528;BMP280;10206;48.012;10.030;2023-02-28T03:29:50;94999.09;;;0.66
31528;BMP280;10206;48.012;10.030;2023-02-28T03:35:03;95002.00;;;0.07
31528;BMP280;10206;48.012;10.030;2023-02-28T03:37:33;94998.13;;;0.30
31528;BMP280;10206;48.012;10.030;2023-02-28T03:40:11;95010.09;;;0.57
31528;BMP280;10206;48.012;10.030;2023-02-28T03:42:41;94996.91;;;0.20
31528;BMP280;10206;48.012;10.030;2023-02-28T03:45:18;95004.13;;;-0.20
31528;BMP280;10206;48.012;10.030;2023-02-28T03:47:50;94998.34;;;0.04
31528;BMP280;10206;48.012;10.030;2023-02-28T03:50:47;95012.28;;;0.41
31528;BMP280;10206;48.012;10.030;2023-02-28T03:53:53;95019.09;;;0.37
31528;BMP280;10206;48.012;10.030;2023-02-28T03:56:48;95018.38;;;0.70
31528;BMP280;10206;48.012;10.030;2023-02-28T03:59:26;94998.38;;;0.15
31528;BMP280;10206;48.012;10.030;2023-02-28T04:01:54;95011.06;;;0.48
31528;BMP280;10206;48.012;10.030;2023-02-28T04:04:21;94994.72;;;0.18
31528;BMP280;10206;48.012;10.030;2023-02-28T04:06:50;95005.94;;;0.22
31528;BMP280;10206;48.012;10.030;2023-02-28T04:09:17;95006.16;;;0.13
31528;BMP280;10206;48.012;10.030;2023-02-28T04:11:45;94997.91;;;0.22
31528;BMP280;10206;48.012;10.030;2023-02-28T04:14:15;95003.91;;;-0.16
31528;BMP280;10206;48.012;10.030;2023-02-28T04:16:42;95007.84;;;0.05
31528;BMP280;10206;48.012;10.030;2023-02-28T04:19:10;95009.75;;;-0.71
31528;BMP280;10206;48.012;10.030;2023-02-28T04:21:38;95005.38;;;-0.10
31528;BMP280;10206;48.012;10.030;2023-02-28T04:24:05;95009.59;;;0.19
31528;BMP280;10206;48.012;10.030;2023-02-28T04:26:33;95021.72;;;0.04
31528;BMP280;10206;48.012;10.030;2023-02-28T04:29:00;95013.22;;;0.11
31528;BMP280;10206;48.012;10.030;2023-02-28T04:31:27;95015.19;;;0.43
31528;BMP280;10206;48.012;10.030;2023-02-28T04:33:53;95021.06;;;0.47
31528;BMP280;10206;48.012;10.030;2023-02-28T04:36:19;95022.75;;;0.34
31528;BMP280;10206;48.012;10.030;2023-02-28T04:38:45;95023.72;;;0.36
31528;BMP280;10206;48.012;10.030;2023-02-28T04:41:12;95029.56;;;0.18
31528;BMP280;10206;48.012;10.030;2023-02-28T04:43:38;95034.88;;;-0.04
31528;BMP280;10206;48.012;10.030;2023-02-28T04:46:05;95033.63;;;-0.14
31528;BMP280;10206;48.012;10.030;2023-02-28T04:48:34;95030.72;;;-0.11
31528;BMP280;10206;48.012;10.030;2023-02-28T04:51:11;95028.81;;;0.07
31528;BMP280;10206;48.012;10.030;2023-02-28T04:53:40;95029.03;;;-0.62
31528;BMP280;10206;48.012;10.030;2023-02-28T04:56:12;95031.97;;;-0.01
31528;BMP280;10206;48.012;10.030;2023-02-28T04:58:38;95031.59;;;-0.36
31528;BMP280;10206;48.012;10.030;2023-02-28T05:01:15;95027.38;;;0.11
31528;BMP280;10206;48.012;10.030;2023-02-28T05:03:42;95036.78;;;-0.64
31528;BMP280;10206;48.012;10.030;2023-02-28T05:06:10;95033.41;;;-0.11
31528;BMP280;10206;48.012;10.030;2023-02-28T05:08:36;95052.63;;;-0.18
31528;BMP280;10206;48.012;10.030;2023-02-28T05:11:05;95045.06;;;-0.19
31528;BMP280;10206;48.012;10.030;2023-02-28T05:13:31;95036.81;;;-0.10
31528;BMP280;10206;48.012;10.030;2023-02-28T05:15:57;95035.84;;;-0.07
31528;BMP280;10206;48.012;10.030;2023-02-28T05:18:23;95032.25;;;0.35
31528;BMP280;10206;48.012;10.030;2023-02-28T05:20:49;95036.19;;;0.28
31528;BMP280;10206;48.012;10.030;2023-02-28T05:23:16;95042.25;;;0.34
31528;BMP280;10206;48.012;10.030;2023-02-28T05:25:43;95051.53;;;-0.42
31528;BMP280;10206;48.012;10.030;2023-02-28T05:28:09;95056.03;;;-0.17
31528;BMP280;10206;48.012;10.030;2023-02-28T05:30:35;95052.22;;;0.12
31528;BMP280;10206;48.012;10.030;2023-02-28T05:33:01;95044.19;;;-0.42
31528;BMP280;10206;48.012;10.030;2023-02-28T05:35:27;95050.16;;;-0.21
31528;BMP280;10206;48.012;10.030;2023-02-28T05:37:54;95052.50;;;-0.40
31528;BMP280;10206;48.012;10.030;2023-02-28T05:40:20;95050.50;;;-0.51
31528;BMP280;10206;48.012;10.030;2023-02-28T05:42:46;95048.56;;;-0.44
31528;BMP280;10206;48.012;10.030;2023-02-28T05:45:12;95050.91;;;-0.69
31528;BMP280;10206;48.012;10.030;2023-02-28T05:47:39;95048.13;;;-0.37
31528;BMP280;10206;48.012;10.030;2023-02-28T05:50:06;95051.66;;;-0.15
31528;BMP280;10206;48.012;10.030;2023-02-28T05:52:32;95053.22;;;0.20
31528;BMP280;10206;48.012;10.030;2023-02-28T05:54:58;95052.47;;;-0.45
31528;BMP280;10206;48.012;10.030;2023-02-28T05:57:25;95055.19;;;-0.34
31528;BMP280;10206;48.012;10.030;2023-02-28T05:59:51;95060.41;;;-0.20
31528;BMP280;10206;48.012;10.030;2023-02-28T06:02:18;95065.38;;;0.04
31528;BMP280;10206;48.012;10.030;2023-02-28T06:04:44;95057.78;;;-0.03
31528;BMP280;10206;48.012;10.030;2023-02-28T06:07:11;95064.34;;;-0.58
31528;BMP280;10206;48.012;10.030;2023-02-28T06:09:38;95065.13;;;0.13
31528;BMP280;10206;48.012;10.030;2023-02-28T06:12:05;95057.03;;;-0.09
31528;BMP280;10206;48.012;10.030;2023-02-28T06:14:34;95066.66;;;-0.34
31528;BMP280;10206;48.012;10.030;2023-02-28T06:17:00;95065.63;;;0.06
31528;BMP280;10206;48.012;10.030;2023-02-28T06:19:27;95071.47;;;0.05
31528;BMP280;10206;48.012;10.030;2023-02-28T06:21:55;95073.03;;;-0.26
31528;BMP280;10206;48.012;10.030;2023-02-28T06:24:24;95070.41;;;-0.15
31528;BMP280;10206;48.012;10.030;2023-02-28T06:26:51;95076.22;;;-0.22
31528;BMP280;10206;48.012;10.030;2023-02-28T06:29:17;95084.66;;;-0.34
31528;BMP280;10206;48.012;10.030;2023-02-28T06:31:47;95091.88;;;-0.52
31528;BMP280;10206;48.012;10.030;2023-02-28T06:34:14;95086.22;;;-0.22
31528;BMP280;10206;48.012;10.030;2023-02-28T06:36:41;95085.56;;;-0.91
31528;BMP280;10206;48.012;10.030;2023-02-28T06:39:08;95094.97;;;-0.27
31528;BMP280;10206;48.012;10.030;2023-02-28T06:41:35;95099.81;;;-0.31
31528;BMP280;10206;48.012;10.030;2023-02-28T06:44:16;95101.69;;;0.05
31528;BMP280;10206;48.012;10.030;2023-02-28T06:46:44;95100.03;;;0.19
31528;BMP280;10206;48.012;10.030;2023-02-28T06:49:11;95100.78;;;0.25
31528;BMP280;10206;48.012;10.030;2023-02-28T06:51:42;95095.50;;;-0.18
31528;BMP280;10206;48.012;10.030;2023-02-28T06:54:11;95095.22;;;0.45
31528;BMP280;10206;48.012;10.030;2023-02-28T06:56:37;95105.63;;;0.10
31528;BMP280;10206;48.012;10.030;2023-02-28T06:59:03;95105.66;;;0.37
31528;BMP280;10206;48.012;10.030;2023-02-28T07:01:30;95112.88;;;-0.02
31528;BMP280;10206;48.012;10.030;2023-02-28T07:03:57;95110.59;;;-0.20
31528;BMP280;10206;48.012;10.030;2023-02-28T07:06:24;95115.00;;;-0.17
31528;BMP280;10206;48.012;10.030;2023-02-28T07:08:51;95113.31;;;-0.15
31528;BMP280;10206;48.012;10.030;2023-02-28T07:11:19;95115.22;;;-0.21
31528;BMP280;10206;48.012;10.030;2023-02-28T07:13:45;95122.91;;;0.03
31528;BMP280;10206;48.012;10.030;2023-02-28T07:16:13;95120.50;;;-0.32
31528;BMP280;10206;48.012;10.030;2023-02-28T07:18:40;95121.75;;;0.37
31528;BMP280;10206;48.012;10.030;2023-02-28T07:21:08;95116.13;;;0.19
31528;BMP280;10206;48.012;10.030;2023-02-28T07:23:34;95120.97;;;0.15
31528;BMP280;10206;48.012;10.030;2023-02-28T07:26:01;95128.78;;;0.18
31528;BMP280;10206;48.012;10.030;2023-02-28T07:28:27;95126.19;;;0.51
31528;BMP280;10206;48.012;10.030;2023-02-28T07:30:53;95124.28;;;0.85
31528;BMP280;10206;48.012;10.030;2023-02-28T07:33:19;95120.63;;;0.83
31528;BMP280;10206;48.012;10.030;2023-02-28T07:35:45;95136.94;;;0.57
31528;BMP280;10206;48.012;10.030;2023-02-28T07:38:11;95130.78;;;0.45
31528;BMP280;10206;48.012;10.030;2023-02-28T07:40:39;95133.81;;;0.81
31528;BMP280;10206;48.012;10.030;2023-02-28T07:43:05;95133.09;;;0.97
31528;BMP280;10206;48.012;10.030;2023-02-28T07:45:32;95132.84;;;0.84
31528;BMP280;10206;48.012;10.030;2023-02-28T07:48:00;95140.31;;;0.52
31528;BMP280;10206;48.012;10.030;2023-02-28T07:50:27;95137.31;;;0.11
31528;BMP280;10206;48.012;10.030;2023-02-28T07:52:58;95139.75;;;0.09
31528;BMP280;10206;48.012;10.030;2023-02-28T07:55:24;95136.16;;;0.34
31528;BMP280;10206;48.012;10.030;2023-02-28T07:57:50;95134.72;;;0.44
31528;BMP280;10206;48.012;10.030;2023-02-28T08:00:17;95143.72;;;0.41
31528;BMP280;10206;48.012;10.030;2023-02-28T08:02:43;95141.78;;;0.42
31528;BMP280;10206;48.012;10.030;2023-02-28T08:05:09;95150.34;;;0.51
31528;BMP280;10206;48.012;10.030;2023-02-28T08:07:35;95148.91;;;-0.09
31528;BMP280;10206;48.012;10.030;2023-02-28T08:10:02;95153.09;;;0.04
31528;BMP280;10206;48.012;10.030;2023-02-28T08:12:28;95154.69;;;0.32
31528;BMP280;10206;48.012;10.030;2023-02-28T08:14:54;95153.78;;;0.58
31528;BMP280;10206;48.012;10.030;2023-02-28T08:17:20;95156.97;;;0.78
31528;BMP280;10206;48.012;10.030;2023-02-28T08:19:47;95149.47;;;1.21
31528;BMP280;10206;48.012;10.030;2023-02-28T08:22:13;95150.69;;;1.15
31528;BMP280;10206;48.012;10.030;2023-02-28T08:24:41;95141.88;;;0.92
31528;BMP280;10206;48.012;10.030;2023-02-28T08:27:08;95138.22;;;0.84
31528;BMP280;10206;48.012;10.030;2023-02-28T08:29:36;95148.25;;;1.00
31528;BMP280;10206;48.012;10.030;2023-02-28T08:32:02;95157.03;;;1.06
31528;BMP280;10206;48.012;10.030;2023-02-28T08:34:28;95151.38;;;0.76
31528;BMP280;10206;48.012;10.030;2023-02-28T08:36:54;95159.47;;;0.98
31528;BMP280;10206;48.012;10.030;2023-02-28T08:39:21;95162.38;;;1.34
31528;BMP280;10206;48.012;10.030;2023-02-28T08:41:47;95156.50;;;0.80
31528;BMP280;10206;48.012;10.030;2023-02-28T08:44:13;95164.56;;;0.80
31528;BMP280;10206;48.012;10.030;2023-02-28T08:46:39;95175.34;;;1.30
31528;BMP280;10206;48.012;10.030;2023-02-28T08:49:05;95170.44;;;0.95
31528;BMP280;10206;48.012;10.030;2023-02-28T08:51:32;95169.94;;;0.91
31528;BMP280;10206;48.012;10.030;2023-02-28T08:54:00;95185.59;;;1.20
31528;BMP280;10206;48.012;10.030;2023-02-28T08:56:27;95187.53;;;1.20
31528;BMP280;10206;48.012;10.030;2023-02-28T08:58:55;95183.38;;;1.07
31528;BMP280;10206;48.012;10.030;2023-02-28T09:01:27;95187.78;;;1.05
31528;BMP280;10206;48.012;10.030;2023-02-28T09:03:55;95190.22;;;1.36
31528;BMP280;10206;48.012;10.030;2023-02-28T09:06:23;95201.94;;;1.05
31528;BMP280;10206;48.012;10.030;2023-02-28T09:08:49;95193.91;;;1.28
31528;BMP280;10206;48.012;10.030;2023-02-28T09:11:15;95193.19;;;1.16
31528;BMP280;10206;48.012;10.030;2023-02-28T09:13:42;95201.91;;;0.94
31528;BMP280;10206;48.012;10.030;2023-02-28T09:16:11;95195.34;;;1.56
31528;BMP280;10206;48.012;10.030;2023-02-28T09:18:39;95196.06;;;0.96
31528;BMP280;10206;48.012;10.030;2023-02-28T09:21:08;95201.72;;;1.09
31528;BMP280;10206;48.012;10.030;2023-02-28T09:23:35;95200.25;;;1.30
31528;BMP280;10206;48.012;10.030;2023-02-28T09:26:04;95197.06;;;1.43
31528;BMP280;10206;48.012;10.030;2023-02-28T09:28:30;95210.13;;;2.24
31528;BMP280;10206;48.012;10.030;2023-02-28T09:30:56;95198.41;;;2.10
31528;BMP280;10206;48.012;10.030;2023-02-28T09:33:26;95198.22;;;1.92
31528;BMP280;10206;48.012;10.030;2023-02-28T09:35:59;95204.53;;;2.22
31528;BMP280;10206;48.012;10.030;2023-02-28T09:38:26;95198.69;;;2.01
31528;BMP280;10206;48.012;10.030;2023-02-28T09:40:56;95209.09;;;2.38
31528;BMP280;10206;48.012;10.030;2023-02-28T09:43:25;95218.34;;;2.54
31528;BMP280;10206;48.012;10.030;2023-02-28T09:46:41;95211.63;;;2.14
31528;BMP280;10206;48.012;10.030;2023-02-28T09:48:45;95218.72;;;2.23
31528;BMP280;10206;48.012;10.030;2023-02-28T09:51:32;95210.63;;;2.17
31528;BMP280;10206;48.012;10.030;2023-02-28T09:54:00;95219.34;;;2.45
31528;BMP280;10206;48.012;10.030;2023-02-28T09:56:38;95208.72;;;2.01
31528;BMP280;10206;48.012;10.030;2023-02-28T10:06:55;95223.19;;;1.81
31528;BMP280;10206;48.012;10.030;2023-02-28T10:09:30;95225.38;;;1.99
31528;BMP280;10206;48.012;10.030;2023-02-28T10:12:02;95231.84;;;2.37
31528;BMP280;10206;48.012;10.030;2023-02-28T10:14:31;95221.16;;;2.15
31528;BMP280;10206;48.012;10.030;2023-02-28T10:17:12;95220.69;;;2.05
31528;BMP280;10206;48.012;10.030;2023-02-28T10:19:58;95225.34;;;2.05
31528;BMP280;10206;48.012;10.030;2023-02-28T10:22:35;95224.59;;;2.15
31528;BMP280;10206;48.012;10.030;2023-02-28T10:25:19;95227.03;;;2.08
31528;BMP280;10206;48.012;10.030;2023-02-28T10:27:46;95217.53;;;1.96
31528;BMP280;10206;48.012;10.030;2023-02-28T10:30:13;95230.81;;;2.57
31528;BMP280;10206;48.012;10.030;2023-02-28T10:32:52;95228.53;;;1.98
31528;BMP280;10206;48.012;10.030;2023-02-28T10:35:25;95235.75;;;2.36
31528;BMP280;10206;48.012;10.030;2023-02-28T10:37:57;95227.31;;;1.93
31528;BMP280;10206;48.012;10.030;2023-02-28T10:43:05;95226.88;;;1.56
31528;BMP280;10206;48.012;10.030;2023-02-28T10:45:33;95228.81;;;1.72
31528;BMP280;10206;48.012;10.030;2023-02-28T10:58:59;95249.13;;;2.64
31528;BMP280;10206;48.012;10.030;2023-02-28T11:01:41;95243.63;;;2.23
31528;BMP280;10206;48.012;10.030;2023-02-28T11:07:20;95233.91;;;2.78
31528;BMP280;10206;48.012;10.030;2023-02-28T11:09:52;95245.66;;;2.69
31528;BMP280;10206;48.012;10.030;2023-02-28T11:12:57;95240.81;;;2.62
31528;BMP280;10206;48.012;10.030;2023-02-28T11:15:30;95244.38;;;2.24
31528;BMP280;10206;48.012;10.030;2023-02-28T11:20:33;95253.72;;;2.69
31528;BMP280;10206;48.012;10.030;2023-02-28T11:23:01;95244.31;;;2.40
31528;BMP280;10206;48.012;10.030;2023-02-28T11:25:36;95245.19;;;1.85
31528;BMP280;10206;48.012;10.030;2023-02-28T11:28:23;95251.28;;;2.77
31528;BMP280;10206;48.012;10.030;2023-02-28T11:31:05;95246.38;;;2.81
31528;BMP280;10206;48.012;10.030;2023-02-28T11:33:37;95240.59;;;3.01
31528;BMP280;10206;48.012;10.030;2023-02-28T11:36:27;95251.94;;;3.23
31528;BMP280;10206;48.012;10.030;2023-02-28T11:38:55;95240.31;;;3.04
31528;BMP280;10206;48.012;10.030;2023-02-28T11:46:51;95248.72;;;3.30
31528;BMP280;10206;48.012;10.030;2023-02-28T11:49:40;95252.53;;;3.11
31528;BMP280;10206;48.012;10.030;2023-02-28T12:00:40;95249.59;;;2.62
31528;BMP280;10206;48.012;10.030;2023-02-28T12:05:50;95253.78;;;3.10
31528;BMP280;10206;48.012;10.030;2023-02-28T12:11:03;95241.50;;;2.73
31528;BMP280;10206;48.012;10.030;2023-02-28T12:16:45;95244.03;;;2.49
31528;BMP280;10206;48.012;10.030;2023-02-28T12:19:26;95244.84;;;2.91
31528;BMP280;10206;48.012;10.030;2023-02-28T12:25:01;95243.22;;;2.65
31528;BMP280;10206;48.012;10.030;2023-02-28T12:27:31;95244.88;;;2.22
31528;BMP280;10206;48.012;10.030;2023-02-28T12:32:39;95237.38;;;3.08
31528;BMP280;10206;48.012;10.030;2023-02-28T12:37:43;95229.09;;;3.36
31528;BMP280;10206;48.012;10.030;2023-02-28T12:40:21;95236.69;;;3.37
31528;BMP280;10206;48.012;10.030;2023-02-28T12:43:00;95238.09;;;3.44
31528;BMP280;10206;48.012;10.030;2023-02-28T12:45:41;95229.09;;;3.36
31528;BMP280;10206;48.012;10.030;2023-02-28T12:48:14;95232.75;;;3.38
31528;BMP280;10206;48.012;10.030;2023-02-28T12:50:41;95229.91;;;2.90
31528;BMP280;10206;48.012;10.030;2023-02-28T12:59:01;95226.00;;;2.85
31528;BMP280;10206;48.012;10.030;2023-02-28T13:04:52;95228.16;;;3.27
31528;BMP280;10206;48.012;10.030;2023-02-28T13:07:30;95219.34;;;2.92
31528;BMP280;10206;48.012;10.030;2023-02-28T13:10:00;95226.47;;;3.24
31528;BMP280;10206;48.012;10.030;2023-02-28T13:12:28;95222.38;;;3.18
31528;BMP280;10206;48.012;10.030;2023-02-28T13:17:50;95222.72;;;3.39
31528;BMP280;10206;48.012;10.030;2023-02-28T13:20:19;95227.56;;;2.64
31528;BMP280;10206;48.012;10.030;2023-02-28T13:22:48;95218.31;;;2.59
31528;BMP280;10206;48.012;10.030;2023-02-28T13:28:00;95222.59;;;3.50
31528;BMP280;10206;48.012;10.030;2023-02-28T13:33:34;95215.38;;;3.63
31528;BMP280;10206;48.012;10.030;2023-02-28T13:36:09;95214.03;;;2.81
31528;BMP280;10206;48.012;10.030;2023-02-28T13:38:38;95220.63;;;3.50
31528;BMP280;10206;48.012;10.030;2023-02-28T13:44:04;95221.03;;;3.30
31528;BMP280;10206;48.012;10.030;2023-02-28T13:51:50;95225.19;;;3.31
31528;BMP280;10206;48.012;10.030;2023-02-28T13:54:39;95226.75;;;3.51
31528;BMP280;10206;48.012;10.030;2023-02-28T14:05:18;95238.19;;;3.62
31528;BMP280;10206;48.012;10.030;2023-02-28T14:07:48;95221.72;;;3.36
31528;BMP280;10206;48.012;10.030;2023-02-28T14:16:06;95229.25;;;4.21
31528;BMP280;10206;48.012;10.030;2023-02-28T14:18:42;95226.47;;;4.08
31528;BMP280;10206;48.012;10.030;2023-02-28T14:21:22;95226.56;;;4.21
31528;BMP280;10206;48.012;10.030;2023-02-28T14:32:51;95228.72;;;4.47
31528;BMP280;10206;48.012;10.030;2023-02-28T14:35:35;95224.53;;;3.55
31528;BMP280;10206;48.012;10.030;2023-02-28T14:38:07;95235.16;;;3.96
31528;BMP280;10206;48.012;10.030;2023-02-28T14:40:39;95228.13;;;4.54
31528;BMP280;10206;48.012;10.030;2023-02-28T14:43:24;95236.28;;;4.30
31528;BMP280;10206;48.012;10.030;2023-02-28T14:45:58;95242.78;;;4.40
31528;BMP280;10206;48.012;10.030;2023-02-28T14:48:26;95239.47;;;4.10
31528;BMP280;10206;48.012;10.030;2023-02-28T14:51:01;95243.03;;;3.69
31528;BMP280;10206;48.012;10.030;2023-02-28T14:53:30;95236.94;;;3.33
31528;BMP280;10206;48.012;10.030;2023-02-28T14:56:00;95235.09;;;4.01
31528;BMP280;10206;48.012;10.030;2023-02-28T14:58:29;95240.19;;;3.56
31528;BMP280;10206;48.012;10.030;2023-02-28T15:01:00;95236.63;;;3.97
31528;BMP280;10206;48.012;10.030;2023-02-28T15:03:36;95245.38;;;4.27
31528;BMP280;10206;48.012;10.030;2023-02-28T15:08:39;95236.53;;;4.08
31528;BMP280;10206;48.012;10.030;2023-02-28T15:11:14;95233.88;;;4.02
31528;BMP280;10206;48.012;10.030;2023-02-28T15:13:43;95236.63;;;3.97
31528;BMP280;10206;48.012;10.030;2023-02-28T15:16:13;95237.88;;;3.96
31528;BMP280;10206;48.012;10.030;2023-02-28T15:18:55;95238.91;;;3.33
31528;BMP280;10206;48.012;10.030;2023-02-28T15:24:10;95239.00;;;4.06
31528;BMP280;10206;48.012;10.030;2023-02-28T15:26:43;95233.47;;;3.68
31528;BMP280;10206;48.012;10.030;2023-02-28T15:29:17;95236.56;;;3.78
31528;BMP280;10206;48.012;10.030;2023-02-28T15:31:48;95231.91;;;4.27
31528;BMP280;10206;48.012;10.030;2023-02-28T15:34:25;95229.81;;;4.14
31528;BMP280;10206;48.012;10.030;2023-02-28T15:36:52;95235.50;;;4.11
31528;BMP280;10206;48.012;10.030;2023-02-28T15:39:24;95239.59;;;3.93
31528;BMP280;10206;48.012;10.030;2023-02-28T15:42:09;95235.22;;;4.14
31528;BMP280;10206;48.012;10.030;2023-02-28T15:44:35;95236.59;;;4.45
31528;BMP280;10206;48.012;10.030;2023-02-28T15:47:04;95240.19;;;4.53
31528;BMP280;10206;48.012;10.030;2023-02-28T15:52:29;95241.34;;;4.58
31528;BMP280;10206;48.012;10.030;2023-02-28T15:54:59;95246.22;;;4.40
31528;BMP280;10206;48.012;10.030;2023-02-28T15:57:32;95242.19;;;4.04
31528;BMP280;10206;48.012;10.030;2023-02-28T16:00:04;95251.66;;;4.16
31528;BMP280;10206;48.012;10.030;2023-02-28T16:02:35;95242.94;;;3.80
31528;BMP280;10206;48.012;10.030;2023-02-28T16:07:41;95234.06;;;4.71
31528;BMP280;10206;48.012;10.030;2023-02-28T16:10:11;95236.88;;;4.60
31528;BMP280;10206;48.012;10.030;2023-02-28T16:12:40;95242.03;;;4.39
31528;BMP280;10206;48.012;10.030;2023-02-28T16:15:19;95240.06;;;4.40
31528;BMP280;10206;48.012;10.030;2023-02-28T16:17:45;95242.88;;;4.10
31528;BMP280;10206;48.012;10.030;2023-02-28T16:20:22;95254.25;;;4.46
31528;BMP280;10206;48.012;10.030;2023-02-28T16:22:49;95248.06;;;4.51
31528;BMP280;10206;48.012;10.030;2023-02-28T16:25:17;95242.78;;;4.40
31528;BMP280;10206;48.012;10.030;2023-02-28T16:27:47;95246.97;;;4.17
31528;BMP280;10206;48.012;10.030;2023-02-28T16:30:23;95252.81;;;4.45
31528;BMP280;10206;48.012;10.030;2023-02-28T16:32:50;95247.97;;;4.38
31528;BMP280;10206;48.012;10.030;2023-02-28T16:35:18;95246.19;;;3.73
31528;BMP280;10206;48.012;10.030;2023-02-28T16:37:44;95240.00;;;4.03
31528;BMP280;10206;48.012;10.030;2023-02-28T16:40:19;95247.69;;;3.93
31528;BMP280;10206;48.012;10.030;2023-02-28T16:42:48;95241.13;;;3.88
31528;BMP280;10206;48.012;10.030;2023-02-28T16:45:24;95242.97;;;3.75
31528;BMP280;10206;48.012;10.030;2023-02-28T16:47:51;95247.81;;;3.52
31528;BMP280;10206;48.012;10.030;2023-02-28T16:50:22;95250.56;;;3.47